![]() |
EMODnet Physics ERDDAP
Easier access to scientific data |
log in|
Brought to you by EMODnet Physics |
| Dataset Title: | NDBC - Collection of dew point temperature (DEWT) TimeSeries - IN SITU MultiPointTimeSeriesObservation
|
| Institution: | NDBC (Dataset ID: TS_DEWT_NDBC) |
| Information: | Summary
| License
| FGDC
| ISO 19115
| Metadata
| Background
| Subset
| Data Access Form
| Make a graph
|
| Name | Last modified | Size | Description | |
|---|---|---|---|---|
| Parent Directory | - | - | ||
| 42056_TS_DEWT_012006.nc | 26-Oct-2024 16:10 | 429287 | ||
| 42056_TS_DEWT_012007.nc | 26-Oct-2024 16:10 | 429282 | ||
| 42056_TS_DEWT_012008.nc | 26-Oct-2024 16:10 | 449916 | ||
| 42056_TS_DEWT_012009.nc | 26-Oct-2024 16:10 | 448951 | ||
| 42056_TS_DEWT_012010.nc | 26-Oct-2024 16:10 | 448857 | ||
| 42056_TS_DEWT_012011.nc | 26-Oct-2024 16:10 | 448455 | ||
| 42056_TS_DEWT_012012.nc | 26-Oct-2024 16:11 | 449340 | ||
| 42056_TS_DEWT_012013.nc | 26-Oct-2024 16:11 | 450005 | ||
| 42056_TS_DEWT_012014.nc | 26-Oct-2024 16:11 | 449844 | ||
| 42056_TS_DEWT_012015.nc | 26-Oct-2024 16:11 | 429490 | ||
| 42056_TS_DEWT_012016.nc | 26-Oct-2024 16:11 | 448592 | ||
| 42056_TS_DEWT_012017.nc | 26-Oct-2024 16:11 | 429492 | ||
| 42056_TS_DEWT_012018.nc | 26-Oct-2024 16:11 | 429491 | ||
| 42056_TS_DEWT_012020.nc | 26-Oct-2024 16:11 | 449040 | ||
| 42056_TS_DEWT_012021.nc | 26-Oct-2024 16:11 | 448777 | ||
| 42056_TS_DEWT_012022.nc | 26-Oct-2024 16:11 | 449870 | ||
| 42056_TS_DEWT_012023.nc | 26-Oct-2024 16:11 | 443062 | ||
| 42056_TS_DEWT_012024.nc | 26-Oct-2024 16:11 | 448913 | ||
| 42056_TS_DEWT_012025.nc | 07-Feb-2025 09:54 | 449055 | ||
| 42056_TS_DEWT_012026.nc | 02-Feb-2026 17:43 | 1114746 | ||
| 42056_TS_DEWT_022007.nc | 26-Oct-2024 16:11 | 1113350 | ||
| 42056_TS_DEWT_022008.nc | 26-Oct-2024 16:11 | 1112248 | ||
| 42056_TS_DEWT_022009.nc | 26-Oct-2024 16:11 | 1114902 | ||
| 42056_TS_DEWT_022010.nc | 26-Oct-2024 16:11 | 1921434 | ||
| 42056_TS_DEWT_022011.nc | 26-Oct-2024 16:11 | 5452646 | ||
| 42056_TS_DEWT_022012.nc | 26-Oct-2024 16:11 | 432294 | ||
| 42056_TS_DEWT_022013.nc | 26-Oct-2024 16:11 | 425561 | ||
| 42056_TS_DEWT_022014.nc | 26-Oct-2024 16:11 | 426108 | ||
| 42056_TS_DEWT_022015.nc | 26-Oct-2024 16:11 | 428234 | ||
| 42056_TS_DEWT_022016.nc | 26-Oct-2024 16:12 | 429565 | ||
| 42056_TS_DEWT_022017.nc | 26-Oct-2024 16:12 | 429502 | ||
| 42056_TS_DEWT_022018.nc | 26-Oct-2024 16:12 | 429601 | ||
| 42056_TS_DEWT_022020.nc | 26-Oct-2024 16:12 | 428131 | ||
| 42056_TS_DEWT_022021.nc | 26-Oct-2024 16:12 | 429604 | ||
| 42056_TS_DEWT_022022.nc | 26-Oct-2024 16:12 | 426743 | ||
| 42056_TS_DEWT_022023.nc | 26-Oct-2024 16:12 | 429608 | ||
| 42056_TS_DEWT_022024.nc | 16-Sep-2024 16:51 | 426646 | ||
| 42056_TS_DEWT_022025.nc | 01-Mar-2025 06:48 | 429622 | ||
| 42056_TS_DEWT_022026.nc | 01-Mar-2026 07:00 | 429594 | ||
| 42056_TS_DEWT_032008.nc | 26-Oct-2024 16:12 | 429612 | ||
| 42056_TS_DEWT_032009.nc | 26-Oct-2024 16:12 | 429618 | ||
| 42056_TS_DEWT_032010.nc | 26-Oct-2024 16:12 | 429614 | ||
| 42056_TS_DEWT_032011.nc | 26-Oct-2024 16:12 | 429613 | ||
| 42056_TS_DEWT_032012.nc | 26-Oct-2024 16:12 | 429618 | ||
| 42056_TS_DEWT_032013.nc | 26-Oct-2024 16:12 | 429618 | ||
| 42056_TS_DEWT_032014.nc | 26-Oct-2024 16:12 | 429610 | ||
| 42056_TS_DEWT_032015.nc | 26-Oct-2024 16:12 | 429619 | ||
| 42056_TS_DEWT_032016.nc | 26-Oct-2024 16:12 | 429622 | ||
| 42056_TS_DEWT_032017.nc | 26-Oct-2024 16:12 | 450499 | ||
| 42056_TS_DEWT_032018.nc | 26-Oct-2024 16:12 | 449929 | ||
| 42056_TS_DEWT_032020.nc | 26-Oct-2024 16:12 | 450777 | ||
| 42056_TS_DEWT_032021.nc | 26-Oct-2024 16:12 | 450988 | ||
| 42056_TS_DEWT_032022.nc | 26-Oct-2024 16:12 | 449941 | ||
| 42056_TS_DEWT_032023.nc | 26-Oct-2024 16:12 | 450832 | ||
| 42056_TS_DEWT_032025.nc | 02-Apr-2025 05:27 | 450981 | ||
| 42056_TS_DEWT_032026.nc | 21-Mar-2026 09:42 | 429840 | ||
| 42056_TS_DEWT_042006.nc | 26-Oct-2024 16:13 | 450224 | ||
| 42056_TS_DEWT_042007.nc | 26-Oct-2024 16:13 | 429836 | ||
| 42056_TS_DEWT_042008.nc | 26-Oct-2024 16:13 | 429837 | ||
| 42056_TS_DEWT_042009.nc | 26-Oct-2024 16:13 | 450836 | ||
| 42056_TS_DEWT_042010.nc | 26-Oct-2024 16:13 | 450043 | ||
| 42056_TS_DEWT_042011.nc | 26-Oct-2024 16:13 | 450341 | ||
| 42056_TS_DEWT_042012.nc | 26-Oct-2024 16:13 | 421087 | ||
| 42056_TS_DEWT_042013.nc | 26-Oct-2024 16:13 | 449468 | ||
| 42056_TS_DEWT_042014.nc | 26-Oct-2024 16:13 | 451202 | ||
| 42056_TS_DEWT_042015.nc | 26-Oct-2024 16:13 | 1265827 | ||
| 42056_TS_DEWT_042016.nc | 26-Oct-2024 16:13 | 1263753 | ||
| 42056_TS_DEWT_042017.nc | 26-Oct-2024 16:13 | 1268251 | ||
| 42056_TS_DEWT_042018.nc | 26-Oct-2024 16:13 | 1020245 | ||
| 42056_TS_DEWT_042020.nc | 26-Oct-2024 16:13 | 5295269 | ||
| 42056_TS_DEWT_042021.nc | 26-Oct-2024 16:13 | 433429 | ||
| 42056_TS_DEWT_042022.nc | 26-Oct-2024 16:13 | 433189 | ||
| 42056_TS_DEWT_042023.nc | 26-Oct-2024 16:13 | 426150 | ||
| 42056_TS_DEWT_042025.nc | 01-May-2025 04:06 | 421381 | ||
| 42056_TS_DEWT_052005.nc | 26-Oct-2024 16:13 | 429606 | ||
| 42056_TS_DEWT_052006.nc | 26-Oct-2024 16:13 | 429609 | ||
| 42056_TS_DEWT_052007.nc | 26-Oct-2024 16:13 | 429510 | ||
| 42056_TS_DEWT_052008.nc | 26-Oct-2024 16:13 | 429594 | ||
| 42056_TS_DEWT_052009.nc | 26-Oct-2024 16:14 | 429604 | ||
| 42056_TS_DEWT_052010.nc | 26-Oct-2024 16:14 | 429599 | ||
| 42056_TS_DEWT_052011.nc | 26-Oct-2024 16:14 | 429128 | ||
| 42056_TS_DEWT_052013.nc | 26-Oct-2024 16:14 | 429604 | ||
| 42056_TS_DEWT_052014.nc | 26-Oct-2024 16:14 | 429691 | ||
| 42056_TS_DEWT_052015.nc | 26-Oct-2024 16:14 | 426097 | ||
| 42056_TS_DEWT_052016.nc | 26-Oct-2024 16:14 | 429622 | ||
| 42056_TS_DEWT_052017.nc | 26-Oct-2024 16:14 | 429621 | ||
| 42056_TS_DEWT_052018.nc | 26-Oct-2024 16:14 | 429616 | ||
| 42056_TS_DEWT_052020.nc | 26-Oct-2024 16:14 | 429597 | ||
| 42056_TS_DEWT_052021.nc | 26-Oct-2024 16:14 | 429551 | ||
| 42056_TS_DEWT_052022.nc | 26-Oct-2024 16:14 | 449539 | ||
| 42056_TS_DEWT_052023.nc | 26-Oct-2024 16:14 | 449811 | ||
| 42056_TS_DEWT_052025.nc | 01-Jun-2025 04:14 | 450590 | ||
| 42056_TS_DEWT_062005.nc | 26-Oct-2024 16:14 | 430171 | ||
| 42056_TS_DEWT_062006.nc | 26-Oct-2024 16:14 | 450009 | ||
| 42056_TS_DEWT_062007.nc | 26-Oct-2024 16:14 | 450191 | ||
| 42056_TS_DEWT_062008.nc | 26-Oct-2024 16:14 | 421627 | ||
| 42056_TS_DEWT_062009.nc | 26-Oct-2024 16:14 | 449861 | ||
| 42056_TS_DEWT_062010.nc | 26-Oct-2024 16:14 | 450234 | ||
| 42056_TS_DEWT_062011.nc | 26-Oct-2024 16:14 | 451003 | ||
| 42056_TS_DEWT_062013.nc | 26-Oct-2024 16:14 | 449783 | ||
| 42056_TS_DEWT_062014.nc | 26-Oct-2024 16:15 | 449821 | ||
| 42056_TS_DEWT_062015.nc | 26-Oct-2024 16:15 | 449748 | ||
| 42056_TS_DEWT_062016.nc | 26-Oct-2024 16:15 | 449873 | ||
| 42056_TS_DEWT_062017.nc | 26-Oct-2024 16:15 | 450747 | ||
| 42056_TS_DEWT_062018.nc | 26-Oct-2024 16:15 | 429811 | ||
| 42056_TS_DEWT_062019.nc | 26-Oct-2024 16:15 | 420274 | ||
| 42056_TS_DEWT_062020.nc | 26-Oct-2024 16:15 | 429825 | ||
| 42056_TS_DEWT_062021.nc | 26-Oct-2024 16:15 | 428081 | ||
| 42056_TS_DEWT_062022.nc | 26-Oct-2024 16:15 | 429841 | ||
| 42056_TS_DEWT_062023.nc | 26-Oct-2024 16:15 | 449718 | ||
| 42056_TS_DEWT_062025.nc | 01-Jul-2025 04:17 | 429834 | ||
| 42056_TS_DEWT_072005.nc | 26-Oct-2024 16:15 | 450544 | ||
| 42056_TS_DEWT_072006.nc | 26-Oct-2024 16:15 | 429835 | ||
| 42056_TS_DEWT_072007.nc | 26-Oct-2024 16:15 | 429735 | ||
| 42056_TS_DEWT_072008.nc | 26-Oct-2024 16:15 | 1263613 | ||
| 42056_TS_DEWT_072009.nc | 26-Oct-2024 16:15 | 1264931 | ||
| 42056_TS_DEWT_072010.nc | 26-Oct-2024 16:15 | 1144253 | ||
| 42056_TS_DEWT_072011.nc | 26-Oct-2024 16:15 | 1144146 | ||
| 42056_TS_DEWT_072012.nc | 26-Oct-2024 16:15 | 911614 | ||
| 42056_TS_DEWT_072013.nc | 26-Oct-2024 16:15 | 3145971 | ||
| 42056_TS_DEWT_072014.nc | 26-Oct-2024 16:16 | 431986 | ||
| 42056_TS_DEWT_072015.nc | 26-Oct-2024 16:16 | 431470 | ||
| 42056_TS_DEWT_072016.nc | 26-Oct-2024 16:16 | 425496 | ||
| 42056_TS_DEWT_072017.nc | 26-Oct-2024 16:16 | 425548 | ||
| 42056_TS_DEWT_072018.nc | 26-Oct-2024 16:16 | 428593 | ||
| 42056_TS_DEWT_072019.nc | 26-Oct-2024 16:16 | 428889 | ||
| 42056_TS_DEWT_072020.nc | 26-Oct-2024 16:16 | 428601 | ||
| 42056_TS_DEWT_072021.nc | 26-Oct-2024 16:16 | 428591 | ||
| 42056_TS_DEWT_072022.nc | 26-Oct-2024 16:16 | 428605 | ||
| 42056_TS_DEWT_072023.nc | 26-Oct-2024 16:16 | 428942 | ||
| 42056_TS_DEWT_072025.nc | 01-Aug-2025 04:26 | 428601 | ||
| 42056_TS_DEWT_082005.nc | 26-Oct-2024 16:16 | 428602 | ||
| 42056_TS_DEWT_082006.nc | 26-Oct-2024 16:16 | 428612 | ||
| 42056_TS_DEWT_082007.nc | 26-Oct-2024 16:16 | 425665 | ||
| 42056_TS_DEWT_082008.nc | 26-Oct-2024 16:16 | 428617 | ||
| 42056_TS_DEWT_082009.nc | 26-Oct-2024 16:16 | 428617 | ||
| 42056_TS_DEWT_082010.nc | 26-Oct-2024 16:16 | 428617 | ||
| 42056_TS_DEWT_082011.nc | 26-Oct-2024 16:16 | 428954 | ||
| 42056_TS_DEWT_082012.nc | 26-Oct-2024 16:16 | 428616 | ||
| 42056_TS_DEWT_082013.nc | 26-Oct-2024 16:16 | 447877 | ||
| 42056_TS_DEWT_082014.nc | 26-Oct-2024 16:16 | 447798 | ||
| 42056_TS_DEWT_082015.nc | 26-Oct-2024 16:16 | 448638 | ||
| 42056_TS_DEWT_082016.nc | 26-Oct-2024 16:16 | 445859 | ||
| 42056_TS_DEWT_082017.nc | 26-Oct-2024 16:16 | 446293 | ||
| 42056_TS_DEWT_082018.nc | 26-Oct-2024 16:16 | 448371 | ||
| 42056_TS_DEWT_082019.nc | 26-Oct-2024 16:17 | 447052 | ||
| 42056_TS_DEWT_082020.nc | 26-Oct-2024 16:17 | 446872 | ||
| 42056_TS_DEWT_082021.nc | 26-Oct-2024 16:17 | 449241 | ||
| 42056_TS_DEWT_082022.nc | 26-Oct-2024 16:17 | 446739 | ||
| 42056_TS_DEWT_082023.nc | 26-Oct-2024 16:17 | 448224 | ||
| 42056_TS_DEWT_082025.nc | 01-Sep-2025 04:29 | 448339 | ||
| 42056_TS_DEWT_092005.nc | 26-Oct-2024 16:17 | 449170 | ||
| 42056_TS_DEWT_092006.nc | 26-Oct-2024 16:17 | 446534 | ||
| 42056_TS_DEWT_092007.nc | 26-Oct-2024 16:17 | 428806 | ||
| 42056_TS_DEWT_092008.nc | 26-Oct-2024 16:17 | 421375 | ||
| 42056_TS_DEWT_092009.nc | 26-Oct-2024 16:17 | 429155 | ||
| 42056_TS_DEWT_092010.nc | 26-Oct-2024 16:17 | 425743 | ||
| 42056_TS_DEWT_092011.nc | 26-Oct-2024 16:17 | 428434 | ||
| 42056_TS_DEWT_092012.nc | 26-Oct-2024 16:17 | 446065 | ||
| 42056_TS_DEWT_092013.nc | 26-Oct-2024 16:17 | 429157 | ||
| 42056_TS_DEWT_092014.nc | 26-Oct-2024 16:17 | 446942 | ||
| 42056_TS_DEWT_092015.nc | 26-Oct-2024 16:17 | 428810 | ||
| 42056_TS_DEWT_092016.nc | 26-Oct-2024 16:17 | 428808 | ||
| 42056_TS_DEWT_092017.nc | 26-Oct-2024 16:17 | 1111496 | ||
| 42056_TS_DEWT_092018.nc | 26-Oct-2024 16:17 | 1024269 | ||
| 42056_TS_DEWT_092019.nc | 26-Oct-2024 16:18 | 918163 | ||
| 42056_TS_DEWT_092020.nc | 26-Oct-2024 16:18 | 918122 | ||
| 42056_TS_DEWT_092021.nc | 26-Oct-2024 16:18 | 420834 | ||
| 42056_TS_DEWT_092022.nc | 26-Oct-2024 16:18 | 4938429 | ||
| 42056_TS_DEWT_092023.nc | 26-Oct-2024 16:18 | 433421 | ||
| 42056_TS_DEWT_092025.nc | 01-Oct-2025 04:06 | 422166 | ||
| 42056_TS_DEWT_102005.nc | 26-Oct-2024 16:18 | 426202 | ||
| 42056_TS_DEWT_102006.nc | 26-Oct-2024 16:18 | 426686 | ||
| 42056_TS_DEWT_102007.nc | 26-Oct-2024 16:18 | 429603 | ||
| 42056_TS_DEWT_102008.nc | 26-Oct-2024 16:18 | 429606 | ||
| 42056_TS_DEWT_102009.nc | 26-Oct-2024 16:18 | 429584 | ||
| 42056_TS_DEWT_102010.nc | 26-Oct-2024 16:18 | 429480 | ||
| 42056_TS_DEWT_102011.nc | 26-Oct-2024 16:18 | 429606 | ||
| 42056_TS_DEWT_102012.nc | 26-Oct-2024 16:18 | 429181 | ||
| 42056_TS_DEWT_102013.nc | 26-Oct-2024 16:18 | 429605 | ||
| 42056_TS_DEWT_102014.nc | 26-Oct-2024 16:18 | 429594 | ||
| 42056_TS_DEWT_102015.nc | 26-Oct-2024 16:18 | 429619 | ||
| 42056_TS_DEWT_102016.nc | 26-Oct-2024 16:18 | 426639 | ||
| 42056_TS_DEWT_102017.nc | 26-Oct-2024 16:19 | 429609 | ||
| 42056_TS_DEWT_102018.nc | 26-Oct-2024 16:19 | 429620 | ||
| 42056_TS_DEWT_102019.nc | 26-Oct-2024 16:19 | 429622 | ||
| 42056_TS_DEWT_102020.nc | 26-Oct-2024 16:19 | 429600 | ||
| 42056_TS_DEWT_102021.nc | 26-Oct-2024 16:19 | 429529 | ||
| 42056_TS_DEWT_102022.nc | 26-Oct-2024 16:19 | 450704 | ||
| 42056_TS_DEWT_102023.nc | 26-Oct-2024 16:19 | 450513 | ||
| 42056_TS_DEWT_102025.nc | 01-Nov-2025 06:11 | 442197 | ||
| 42056_TS_DEWT_112005.nc | 26-Oct-2024 16:19 | 450335 | ||
| 42056_TS_DEWT_112006.nc | 26-Oct-2024 16:19 | 449369 | ||
| 42056_TS_DEWT_112007.nc | 26-Oct-2024 16:19 | 448846 | ||
| 42056_TS_DEWT_112008.nc | 26-Oct-2024 16:19 | 450968 | ||
| 42056_TS_DEWT_112009.nc | 26-Oct-2024 16:19 | 450059 | ||
| 42056_TS_DEWT_112010.nc | 26-Oct-2024 16:19 | 449717 | ||
| 42056_TS_DEWT_112011.nc | 26-Oct-2024 16:19 | 450382 | ||
| 42056_TS_DEWT_112012.nc | 26-Oct-2024 16:19 | 449898 | ||
| 42056_TS_DEWT_112013.nc | 26-Oct-2024 16:19 | 449626 | ||
| 42056_TS_DEWT_112014.nc | 26-Oct-2024 16:19 | 449700 | ||
| 42056_TS_DEWT_112015.nc | 26-Oct-2024 16:19 | 451214 | ||
| 42056_TS_DEWT_112016.nc | 26-Oct-2024 16:19 | 449190 | ||
| 42056_TS_DEWT_112017.nc | 26-Oct-2024 16:19 | 429833 | ||
| 42056_TS_DEWT_112019.nc | 26-Oct-2024 16:19 | 420187 | ||
| 42056_TS_DEWT_112020.nc | 26-Oct-2024 16:20 | 429821 | ||
| 42056_TS_DEWT_112021.nc | 26-Oct-2024 16:20 | 426545 | ||
| 42056_TS_DEWT_112022.nc | 26-Oct-2024 16:20 | 421310 | ||
| 42056_TS_DEWT_112023.nc | 26-Oct-2024 16:20 | 450053 | ||
| 42056_TS_DEWT_112024.nc | 17-Jan-2025 14:41 | 429831 | ||
| 42056_TS_DEWT_112025.nc | 01-Dec-2025 06:55 | 450963 | ||
| 42056_TS_DEWT_122005.nc | 26-Oct-2024 16:20 | 429842 | ||
| 42056_TS_DEWT_122006.nc | 26-Oct-2024 16:20 | 429721 | ||
| 42056_TS_DEWT_122007.nc | 26-Oct-2024 16:20 | 1261605 | ||
| 42056_TS_DEWT_122008.nc | 26-Oct-2024 16:20 | 1005657 | ||
| 42056_TS_DEWT_122009.nc | 26-Oct-2024 16:20 | 1144038 | ||
| 42056_TS_DEWT_122010.nc | 26-Oct-2024 16:20 | 1144043 | ||
| 42056_TS_DEWT_122011.nc | 26-Oct-2024 16:20 | 1883896 | ||
| 42056_TS_DEWT_122012.nc | 26-Oct-2024 16:20 | 3514717 | ||
| 42056_TS_DEWT_122013.nc | 26-Oct-2024 16:20 | 432791 | ||
| 42056_TS_DEWT_122014.nc | 26-Oct-2024 16:20 | 425667 | ||
| 42056_TS_DEWT_122015.nc | 26-Oct-2024 16:20 | 425823 | ||
| 42056_TS_DEWT_122016.nc | 26-Oct-2024 16:20 | 429265 | ||
| 42056_TS_DEWT_122017.nc | 26-Oct-2024 16:20 | 429164 | ||
| 42056_TS_DEWT_122019.nc | 26-Oct-2024 16:20 | 429274 | ||
| 42056_TS_DEWT_122020.nc | 26-Oct-2024 16:20 | 429264 | ||
| 42056_TS_DEWT_122021.nc | 26-Oct-2024 16:21 | 429198 | ||
| 42056_TS_DEWT_122022.nc | 26-Oct-2024 16:21 | 425758 | ||
| 42056_TS_DEWT_122023.nc | 26-Oct-2024 16:21 | 429260 | ||
| 42056_TS_DEWT_122024.nc | 22-Jan-2025 16:29 | 428415 | ||
| 42056_TS_DEWT_122025.nc | 01-Jan-2026 06:49 | 429285 | ||